Time;durP1;ratioP1;P1;durP2;ratioP2;P2;SDS_P1;SDS_P2;PMS_P1;PMS_P2;Temp;Humidity;BMP_temperature;BMP_pressure;BME280_temperature;BME280_humidity;BME280_pressure;Samples;Min_cycle;Max_cycle;Signal;HPM_P1;HPM_P2
2023/09/30 00:00:37;;;;;;;14.70;6.30;;;;;;;19.95;100.00;100946.06;5075162;28;20120;-76
2023/09/30 00:03:03;;;;;;;17.33;5.80;;;;;;;20.02;100.00;100964.66;5074529;28;20024;-73
2023/09/30 00:05:28;;;;;;;15.15;6.88;;;;;;;20.00;100.00;100963.91;5074054;28;20028;-72
2023/09/30 00:07:54;;;;;;;16.80;6.30;;;;;;;19.65;100.00;100898.56;5074418;28;20137;-74
2023/09/30 00:10:19;;;;;;;12.65;6.43;;;;;;;20.01;100.00;100950.06;5074275;28;20068;-73
2023/09/30 00:12:45;;;;;;;12.73;6.60;;;;;;;20.15;100.00;100939.84;5074420;28;20052;-75
2023/09/30 00:15:11;;;;;;;13.10;6.40;;;;;;;20.05;100.00;100939.50;5073969;28;20024;-72
2023/09/30 00:17:36;;;;;;;13.43;6.93;;;;;;;19.75;100.00;100879.13;5073952;28;20032;-73
2023/09/30 00:20:04;;;;;;;17.33;6.55;;;;;;;19.99;100.00;100921.75;5073919;28;20066;-73
2023/09/30 00:22:29;;;;;;;12.45;6.32;;;;;;;19.78;100.00;100922.84;5073869;28;20032;-72
2023/09/30 00:24:55;;;;;;;17.83;6.82;;;;;;;19.81;100.00;100925.25;5073640;28;20040;-73
2023/09/30 00:27:20;;;;;;;14.55;6.15;;;;;;;20.09;100.00;100922.94;5073783;28;20024;-71
2023/09/30 00:29:46;;;;;;;14.15;6.60;;;;;;;19.76;100.00;100870.47;5073992;28;20411;-73
2023/09/30 00:32:12;;;;;;;15.25;6.60;;;;;;;19.81;100.00;100923.53;5073418;28;20043;-73
2023/09/30 00:34:38;;;;;;;15.38;5.95;;;;;;;20.07;100.00;100937.69;5074135;28;20555;-73
2023/09/30 00:37:03;;;;;;;15.57;6.20;;;;;;;19.75;100.00;100873.94;5055465;28;20045;-73
2023/09/30 00:39:31;;;;;;;13.68;6.30;;;;;;;20.14;100.00;100935.63;5073563;28;20047;-73
2023/09/30 00:42:00;;;;;;;12.95;6.50;;;;;;;19.77;100.00;100888.44;5055300;28;20036;-73
2023/09/30 00:44:26;;;;;;;12.88;6.47;;;;;;;19.76;100.00;100888.53;5073463;28;20029;-73
2023/09/30 00:46:55;;;;;;;11.40;6.30;;;;;;;19.69;100.00;100869.94;5073652;28;20399;-71
2023/09/30 00:49:22;;;;;;;13.52;6.28;;;;;;;19.70;100.00;100887.13;5077204;28;20415;-72
2023/09/30 00:51:49;;;;;;;8.18;6.32;;;;;;;19.97;100.00;100907.22;5076409;28;20024;-71
2023/09/30 00:54:16;;;;;;;15.65;6.25;;;;;;;19.53;100.00;100871.63;5072965;28;20033;-74
2023/09/30 00:56:47;;;;;;;10.88;6.30;;;;;;;20.06;100.00;100912.78;5073134;28;20029;-71
2023/09/30 00:59:14;;;;;;;15.38;6.60;;;;;;;19.71;100.00;100864.69;5073246;28;20056;-73
2023/09/30 01:01:41;;;;;;;12.10;6.05;;;;;;;20.02;100.00;100929.34;5055443;28;20431;-74
2023/09/30 01:04:07;;;;;;;13.48;6.20;;;;;;;19.93;100.00;100929.81;5073196;28;20036;-72
2023/09/30 01:06:33;;;;;;;17.85;6.38;;;;;;;19.72;100.00;100881.88;5072426;28;20020;-73
2023/09/30 01:08:58;;;;;;;11.40;6.70;;;;;;;19.73;100.00;100880.94;5072979;28;20115;-73
2023/09/30 01:11:24;;;;;;;11.15;6.75;;;;;;;19.59;100.00;100889.38;5072716;28;20025;-72
2023/09/30 01:13:49;;;;;;;11.52;6.30;;;;;;;19.63;100.00;100887.50;5055075;28;20028;-73
2023/09/30 01:16:15;;;;;;;10.35;6.63;;;;;;;19.80;100.00;100921.03;5054988;28;20125;-74
2023/09/30 01:18:42;;;;;;;11.13;6.47;;;;;;;19.61;100.00;100900.47;5072636;28;20086;-73
2023/09/30 01:21:08;;;;;;;12.55;6.97;;;;;;;19.73;100.00;100917.91;5072493;28;20119;-73
2023/09/30 01:23:37;;;;;;;11.68;6.88;;;;;;;19.56;100.00;100893.88;5072378;28;20056;-73
2023/09/30 01:26:09;;;;;;;13.70;7.47;;;;;;;19.78;100.00;100910.78;5072485;28;20039;-73
2023/09/30 01:28:34;;;;;;;13.23;6.72;;;;;;;19.26;100.00;100833.47;5072945;28;20020;-73
2023/09/30 01:31:00;;;;;;;16.02;8.00;;;;;;;19.86;100.00;100835.53;5072503;28;20044;-71
2023/09/30 01:33:26;;;;;;;17.02;7.35;;;;;;;20.02;100.00;100840.72;5072572;28;20028;-72
2023/09/30 01:35:52;;;;;;;16.42;7.00;;;;;;;20.04;100.00;100931.84;5072591;28;20091;-73
2023/09/30 01:38:18;;;;;;;14.88;7.25;;;;;;;20.02;100.00;100934.50;5072244;28;20030;-72
2023/09/30 01:40:43;;;;;;;10.55;7.05;;;;;;;19.87;100.00;100894.81;5072100;28;20108;-73
2023/09/30 01:43:09;;;;;;;14.50;7.45;;;;;;;20.05;100.00;100921.44;5072585;28;20119;-72
2023/09/30 01:45:35;;;;;;;11.15;7.70;;;;;;;20.12;100.00;100925.38;5071754;28;20499;-73
2023/09/30 01:48:02;;;;;;;14.68;7.03;;;;;;;19.71;100.00;100875.03;5072144;28;20028;-72
2023/09/30 01:50:27;;;;;;;14.57;7.60;;;;;;;19.50;100.00;100873.53;5071974;28;20043;-72
2023/09/30 01:52:53;;;;;;;13.25;7.20;;;;;;;19.46;100.00;100882.34;5071918;28;20020;-70
2023/09/30 01:55:18;;;;;;;12.10;7.18;;;;;;;19.41;100.00;100867.09;5072048;28;20029;-73
2023/09/30 01:57:43;;;;;;;16.27;7.32;;;;;;;19.36;100.00;100870.81;5072067;28;20098;-73
2023/09/30 02:00:09;;;;;;;15.32;7.50;;;;;;;19.52;100.00;100939.63;5071583;28;20146;-75
2023/09/30 02:02:36;;;;;;;13.88;7.50;;;;;;;19.38;100.00;100875.00;5071447;28;20032;-72
2023/09/30 02:05:02;;;;;;;15.70;7.60;;;;;;;19.48;100.00;100909.75;5071735;28;20052;-73
2023/09/30 02:07:29;;;;;;;13.13;7.20;;;;;;;19.34;100.00;100877.78;5071008;28;20174;-72
2023/09/30 02:09:54;;;;;;;15.50;7.50;;;;;;;19.57;100.00;100880.06;5071795;28;20028;-73
2023/09/30 02:12:20;;;;;;;16.98;7.85;;;;;;;19.09;100.00;100828.31;5071734;28;20041;-73
2023/09/30 02:14:46;;;;;;;16.55;7.90;;;;;;;19.64;100.00;100905.50;5071547;28;20384;-73
2023/09/30 02:17:13;;;;;;;17.30;7.85;;;;;;;19.00;100.00;100814.97;5071365;28;20032;-74
2023/09/30 02:19:40;;;;;;;16.88;7.45;;;;;;;19.42;100.00;100891.13;5071548;28;20039;-73
2023/09/30 02:22:09;;;;;;;13.40;7.78;;;;;;;19.63;100.00;100908.97;5071265;28;20074;-73
2023/09/30 02:24:34;;;;;;;14.77;7.45;;;;;;;19.36;100.00;100860.50;5070971;28;20049;-73
2023/09/30 02:26:59;;;;;;;16.85;7.97;;;;;;;19.73;100.00;100886.94;5071355;28;20420;-72
2023/09/30 02:29:25;;;;;;;12.43;7.75;;;;;;;19.12;100.00;100802.38;5071483;28;20029;-72
2023/09/30 02:31:51;;;;;;;14.60;7.57;;;;;;;19.66;100.00;100911.41;5071381;28;20033;-74
2023/09/30 02:34:16;;;;;;;18.23;8.10;;;;;;;19.81;100.00;100904.63;5071142;28;20480;-73
2023/09/30 02:36:42;;;;;;;14.48;7.57;;;;;;;19.85;100.00;100880.31;5070994;28;20047;-71
2023/09/30 02:39:10;;;;;;;18.50;7.68;;;;;;;20.00;100.00;100902.78;5071286;28;20032;-74
2023/09/30 02:41:37;;;;;;;18.80;7.95;;;;;;;20.02;100.00;100894.94;5071135;28;20124;-73
2023/09/30 02:44:03;;;;;;;15.43;7.93;;;;;;;19.93;100.00;100891.06;5069934;28;20028;-73
2023/09/30 02:46:28;;;;;;;14.48;8.15;;;;;;;19.81;100.00;100904.63;5073348;28;20024;-74
2023/09/30 02:48:54;;;;;;;24.08;8.50;;;;;;;19.93;100.00;100904.00;5072418;28;20024;-72
2023/09/30 02:51:19;;;;;;;14.50;8.02;;;;;;;19.55;100.00;100876.75;5070659;28;20089;-72
2023/09/30 02:53:46;;;;;;;15.43;7.90;;;;;;;19.78;100.00;100915.94;5071225;28;20502;-71
2023/09/30 02:56:11;;;;;;;17.67;8.20;;;;;;;19.48;100.00;100883.09;5071304;28;20024;-72
2023/09/30 02:58:38;;;;;;;12.63;7.75;;;;;;;19.51;100.00;100912.16;5070979;28;20116;-73
2023/09/30 03:01:03;;;;;;;11.70;7.97;;;;;;;19.58;100.00;100918.69;5052771;28;20063;-73
2023/09/30 03:03:30;;;;;;;18.35;8.00;;;;;;;19.60;100.00;100903.97;5071280;28;20075;-74
2023/09/30 03:05:57;;;;;;;13.38;8.13;;;;;;;19.10;100.00;100851.44;5052680;28;20032;-73
2023/09/30 03:08:23;;;;;;;16.80;8.13;;;;;;;19.25;100.00;100857.59;5071163;28;20032;-73
2023/09/30 03:10:49;;;;;;;15.90;9.02;;;;;;;18.86;100.00;100819.13;5070554;28;20039;-73
2023/09/30 03:13:14;;;;;;;12.93;7.82;;;;;;;19.38;100.00;100925.72;5070630;28;20024;-74
2023/09/30 03:15:40;;;;;;;10.73;7.47;;;;;;;19.16;100.00;100878.66;5070992;28;20028;-72
2023/09/30 03:18:05;;;;;;;16.65;7.68;;;;;;;19.26;100.00;100885.88;5071306;28;20530;-73
2023/09/30 03:20:31;;;;;;;17.27;8.25;;;;;;;19.17;100.00;100857.13;5074723;28;20067;-72
2023/09/30 03:22:56;;;;;;;11.35;7.60;;;;;;;19.45;100.00;100907.28;5074932;28;20021;-73
2023/09/30 03:25:22;;;;;;;13.25;7.75;;;;;;;19.45;100.00;100919.38;5074520;28;20563;-74
2023/09/30 03:27:48;;;;;;;15.07;7.38;;;;;;;19.48;100.00;100917.47;5074887;28;20035;-73
2023/09/30 03:30:15;;;;;;;15.85;7.90;;;;;;;19.48;100.00;100909.75;5074815;28;20032;-75
2023/09/30 03:32:42;;;;;;;16.17;8.13;;;;;;;19.65;100.00;100906.28;5075189;28;20032;-73
2023/09/30 03:35:14;;;;;;;14.40;7.70;;;;;;;19.39;100.00;100909.38;5074649;28;20036;-73
2023/09/30 03:37:41;;;;;;;13.38;7.55;;;;;;;18.92;100.00;100853.16;5074573;28;20503;-73
2023/09/30 03:40:40;;;;;;;13.80;7.93;;;;;;;19.23;100.00;100918.72;5075082;28;20103;-72
2023/09/30 03:42:58;;;;;;;15.05;7.82;;;;;;;19.22;100.00;100915.31;5071882;28;20043;-75
2023/09/30 03:45:24;;;;;;;12.02;7.40;;;;;;;19.04;100.00;100856.88;5057150;28;20505;-75
2023/09/30 03:47:51;;;;;;;14.57;7.72;;;;;;;19.27;100.00;100903.03;5075291;28;20029;-76
2023/09/30 03:50:17;;;;;;;17.83;8.23;;;;;;;19.30;100.00;100932.97;5075357;28;20024;-73
2023/09/30 03:52:44;;;;;;;10.93;7.55;;;;;;;19.00;100.00;100861.38;5073808;28;20509;-75
2023/09/30 03:55:14;;;;;;;12.95;7.28;;;;;;;18.97;100.00;100864.09;5075801;28;20109;-76
2023/09/30 03:57:39;;;;;;;12.20;7.82;;;;;;;19.47;100.00;100909.81;5075764;28;20025;-76
2023/09/30 04:00:06;;;;;;;13.82;7.78;;;;;;;19.16;100.00;100858.88;5074553;28;20044;-74
2023/09/30 04:02:32;;;;;;;18.77;7.70;;;;;;;19.54;100.00;100926.66;5056693;28;20464;-75
2023/09/30 04:04:59;;;;;;;17.35;7.53;;;;;;;19.65;100.00;100920.03;5074692;28;20031;-75
2023/09/30 04:07:27;;;;;;;13.68;7.45;;;;;;;19.42;100.00;100911.78;5074096;28;20471;-74
2023/09/30 04:09:54;;;;;;;13.05;7.28;;;;;;;19.31;100.00;100926.94;5074347;28;20059;-75
2023/09/30 04:12:19;;;;;;;14.20;7.80;;;;;;;19.26;100.00;100911.66;5074290;28;20071;-73
2023/09/30 04:14:45;;;;;;;13.00;7.25;;;;;;;18.93;100.00;100854.84;5073685;28;20526;-72
2023/09/30 04:17:10;;;;;;;14.05;7.55;;;;;;;19.14;100.00;100914.00;5073961;28;20423;-74
2023/09/30 04:19:36;;;;;;;18.58;7.63;;;;;;;18.94;100.00;100866.81;5074469;28;20024;-74
2023/09/30 04:22:01;;;;;;;16.65;8.13;;;;;;;19.08;100.00;100920.28;5073780;28;20090;-75
2023/09/30 04:24:28;;;;;;;16.25;8.00;;;;;;;18.79;100.00;100866.72;5056845;28;20127;-75
2023/09/30 04:26:57;;;;;;;17.80;7.70;;;;;;;19.17;100.00;100916.44;5056409;28;20120;-75
2023/09/30 04:29:23;;;;;;;19.13;7.82;;;;;;;18.70;100.00;100854.25;5055357;28;20132;-73
2023/09/30 04:31:49;;;;;;;16.77;7.28;;;;;;;18.69;100.00;100866.31;5073936;28;20028;-72
2023/09/30 04:34:14;;;;;;;16.23;7.90;;;;;;;18.73;100.00;100862.69;5073562;28;20032;-72
2023/09/30 04:36:40;;;;;;;16.83;7.60;;;;;;;18.92;100.00;100876.38;5073597;28;20491;-74
2023/09/30 04:39:06;;;;;;;12.40;7.90;;;;;;;19.37;100.00;100924.06;5073844;28;20074;-72
2023/09/30 04:41:31;;;;;;;16.77;7.97;;;;;;;19.39;100.00;100922.25;5073331;28;20505;-73
2023/09/30 04:43:57;;;;;;;16.30;8.15;;;;;;;18.92;100.00;100829.13;5055785;28;20032;-75
2023/09/30 04:46:23;;;;;;;16.65;8.57;;;;;;;19.13;100.00;100859.03;5074336;28;20074;-73
2023/09/30 04:48:51;;;;;;;13.38;8.63;;;;;;;19.43;100.00;100867.03;5073693;28;20214;-75
2023/09/30 04:51:18;;;;;;;18.08;8.50;;;;;;;19.64;100.00;100871.09;5073543;28;20546;-75
2023/09/30 04:53:46;;;;;;;15.07;8.30;;;;;;;19.88;100.00;100917.16;5055298;28;20514;-73
2023/09/30 04:56:12;;;;;;;27.45;8.90;;;;;;;19.97;100.00;100812.56;5073037;28;20039;-72
2023/09/30 04:58:38;;;;;;;16.73;8.70;;;;;;;21.12;100.00;100852.69;5073012;28;20028;-73
2023/09/30 05:01:03;;;;;;;15.18;8.40;;;;;;;22.75;100.00;100808.97;5072931;28;20146;-73
2023/09/30 05:03:28;;;;;;;18.95;8.60;;;;;;;23.08;100.00;100822.34;5072684;28;20376;-73
2023/09/30 05:05:58;;;;;;;22.33;9.10;;;;;;;22.89;100.00;100827.06;5073123;28;20082;-73
2023/09/30 05:08:24;;;;;;;18.67;8.02;;;;;;;21.89;100.00;100892.16;5054908;28;20402;-72
2023/09/30 05:10:50;;;;;;;17.67;8.18;;;;;;;21.65;100.00;100911.72;5072821;28;20117;-75
2023/09/30 05:13:15;;;;;;;17.38;8.07;;;;;;;20.62;100.00;100940.78;5072818;28;20032;-75
2023/09/30 05:15:41;;;;;;;16.00;8.38;;;;;;;20.19;100.00;100874.25;5073254;28;20029;-75
2023/09/30 05:18:09;;;;;;;14.25;7.80;;;;;;;20.43;100.00;100884.13;5055592;28;20028;-75
2023/09/30 05:20:36;;;;;;;18.15;8.27;;;;;;;20.77;100.00;100888.28;5073345;28;20033;-74
2023/09/30 05:23:02;;;;;;;18.45;8.07;;;;;;;20.93;100.00;100920.13;5056018;28;20495;-73
2023/09/30 05:25:28;;;;;;;40.65;9.02;;;;;;;20.74;100.00;100878.09;5072736;28;20067;-72
2023/09/30 05:27:54;;;;;;;16.00;7.63;;;;;;;21.18;100.00;100860.09;5072121;28;20554;-71
2023/09/30 05:30:20;;;;;;;17.38;6.85;;;;;;;21.34;100.00;100908.31;5088914;28;20032;-73
2023/09/30 05:32:46;;;;;;;17.30;7.20;;;;;;;21.26;100.00;100876.03;5091793;28;20035;-71
2023/09/30 05:35:12;;;;;;;10.27;6.97;;;;;;;20.80;100.00;100866.59;5073995;28;20418;-71
2023/09/30 05:37:41;;;;;;;12.85;7.05;;;;;;;21.16;100.00;100864.53;5091410;28;20044;-75
2023/09/30 05:40:21;;;;;;;18.05;7.22;;;;;;;21.83;100.00;100913.25;5091010;28;20024;-71
2023/09/30 05:42:48;;;;;;;15.88;6.95;;;;;;;21.74;100.00;100851.59;5090339;28;20480;-72
2023/09/30 05:45:13;;;;;;;12.63;6.43;;;;;;;21.98;100.00;100907.97;5091044;28;20063;-72
2023/09/30 05:47:40;;;;;;;10.32;6.22;;;;;;;22.23;100.00;100913.34;5091118;28;20117;-72
2023/09/30 05:50:07;;;;;;;14.15;6.43;;;;;;;22.41;100.00;100903.59;5091346;28;20027;-75
2023/09/30 05:52:33;;;;;;;15.93;6.65;;;;;;;22.07;100.00;100911.75;5090975;28;20055;-74
2023/09/30 05:55:00;;;;;;;15.13;6.32;;;;;;;22.45;100.00;100905.06;5090815;28;21042;-73
2023/09/30 05:57:26;;;;;;;12.80;6.35;;;;;;;22.60;100.00;100909.31;5071287;28;20039;-71
2023/09/30 05:59:52;;;;;;;13.15;6.38;;;;;;;22.28;100.00;100854.25;5068375;28;20422;-69
2023/09/30 06:02:17;;;;;;;17.48;6.60;;;;;;;22.55;100.00;100913.09;5090207;28;20509;-72
2023/09/30 06:04:42;;;;;;;11.57;6.28;;;;;;;22.51;100.00;100860.63;5088999;28;20055;-72
2023/09/30 06:07:08;;;;;;;12.90;6.57;;;;;;;23.09;100.00;100874.16;5090769;28;20032;-75
2023/09/30 06:09:34;;;;;;;17.88;6.63;;;;;;;22.75;100.00;100873.81;5088722;28;20031;-74
2023/09/30 06:12:03;;;;;;;12.85;6.20;;;;;;;22.80;100.00;100900.31;5066958;28;20032;-74
2023/09/30 06:14:30;;;;;;;15.00;6.32;;;;;;;22.99;100.00;100849.72;5090340;28;20039;-74
2023/09/30 06:16:56;;;;;;;18.90;6.25;;;;;;;23.59;100.00;100857.00;5090533;28;20409;-74
2023/09/30 06:19:21;;;;;;;12.82;6.03;;;;;;;23.48;100.00;100901.03;5089974;28;20032;-72
2023/09/30 06:21:47;;;;;;;10.68;5.78;;;;;;;23.30;100.00;100856.31;5089950;28;20085;-72
2023/09/30 06:24:12;;;;;;;15.40;6.10;;;;;;;24.08;100.00;100839.72;5090474;28;20028;-73
2023/09/30 06:26:38;;;;;;;18.10;6.18;;;;;;;24.33;100.00;100873.44;5089929;28;20028;-76
2023/09/30 06:29:03;;;;;;;14.20;6.35;;;;;;;24.54;100.00;100848.50;5090227;28;20020;-74
2023/09/30 06:31:28;;;;;;;14.77;6.50;;;;;;;23.46;100.00;100877.75;5090109;28;20107;-75
2023/09/30 06:33:58;;;;;;;16.98;5.80;;;;;;;23.57;100.00;100880.47;5090393;28;20119;-75
2023/09/30 06:36:23;;;;;;;16.50;5.70;;;;;;;24.57;100.00;100891.69;5049727;28;1187796;-74
2023/09/30 06:38:50;;;;;;;18.17;5.88;;;;;;;24.90;100.00;100886.69;5091368;28;20418;-75
2023/09/30 06:41:18;;;;;;;14.43;5.70;;;;;;;24.78;100.00;100840.75;5091418;28;20101;-74
2023/09/30 06:43:44;;;;;;;15.10;6.40;;;;;;;25.14;100.00;100822.41;5091095;28;20482;-74
2023/09/30 06:46:10;;;;;;;11.00;5.97;;;;;;;24.60;100.00;100835.06;5090095;28;20034;-73
2023/09/30 06:48:37;;;;;;;22.80;11.50;;;;;;;25.88;100.00;100876.66;5091356;28;20012;-75
2023/09/30 06:51:02;;;;;;;18.20;7.38;;;;;;;25.76;100.00;100865.41;5090983;28;20444;-74
2023/09/30 06:53:28;;;;;;;15.77;7.53;;;;;;;24.81;100.00;100887.34;5090841;28;20024;-73
2023/09/30 06:55:53;;;;;;;16.88;6.45;;;;;;;24.85;100.00;100907.03;5088450;28;20036;-73
2023/09/30 06:58:22;;;;;;;14.35;5.78;;;;;;;24.07;100.00;100895.22;5091025;28;20040;-74
2023/09/30 07:00:51;;;;;;;12.40;5.80;;;;;;;24.05;100.00;100860.72;5091397;28;20024;-72
2023/09/30 07:03:17;;;;;;;14.85;7.20;;;;;;;24.01;100.00;100860.06;5090163;28;20384;-73
2023/09/30 07:05:43;;;;;;;19.05;6.25;;;;;;;23.63;100.00;100874.84;5072256;28;20108;-73
2023/09/30 07:08:09;;;;;;;10.32;6.00;;;;;;;24.06;100.00;100909.19;5090951;28;20024;-72
2023/09/30 07:10:35;;;;;;;10.65;5.60;;;;;;;24.50;100.00;100917.28;5090843;28;20024;-74
2023/09/30 07:13:06;;;;;;;17.42;5.60;;;;;;;24.60;100.00;100915.69;5090716;28;20093;-74
2023/09/30 07:15:32;;;;;;;13.75;5.35;;;;;;;24.86;100.00;100903.47;5088924;28;20036;-72
2023/09/30 07:17:57;;;;;;;12.18;5.72;;;;;;;25.11;100.00;100827.84;5085716;23;20062;-70
2023/09/30 07:20:23;;;;;;;17.83;6.55;;;;;;;25.28;100.00;100869.06;4626844;28;10000412;-72
2023/09/30 07:22:48;;;;;;;11.73;5.80;;;;;;;25.77;100.00;100853.19;4991082;28;20031;-73
2023/09/30 07:25:17;;;;;;;16.23;5.72;;;;;;;25.88;100.00;100844.53;4990702;28;20042;-71
2023/09/30 07:27:46;;;;;;;15.63;6.15;;;;;;;26.26;100.00;100851.06;4990596;28;20030;-70
2023/09/30 07:30:14;;;;;;;36.30;9.20;;;;;;;26.62;100.00;100840.28;4991142;28;20026;-70
2023/09/30 07:32:41;;;;;;;31.05;6.07;;;;;;;26.77;100.00;100819.16;4991193;28;20092;-71
2023/09/30 07:35:07;;;;;;;10.60;5.20;;;;;;;26.50;100.00;100828.22;4990604;28;20049;-69
2023/09/30 07:37:33;;;;;;;11.10;5.55;;;;;;;25.76;100.00;100868.00;4986818;28;20405;-69
2023/09/30 07:39:59;;;;;;;18.88;6.15;;;;;;;26.63;100.00;100833.28;4973291;28;20044;-71
2023/09/30 07:42:25;;;;;;;12.73;5.55;;;;;;;26.81;100.00;100792.66;4988029;28;20038;-68
2023/09/30 07:44:50;;;;;;;13.30;6.18;;;;;;;26.55;100.00;100856.56;4971152;28;20085;-68
2023/09/30 07:47:16;;;;;;;10.60;5.95;;;;;;;26.65;100.00;100826.16;4971523;28;20385;-73
2023/09/30 07:49:41;;;;;;;10.23;5.50;;;;;;;26.53;100.00;100833.22;4969998;28;20030;-69
2023/09/30 07:52:06;;;;;;;11.65;6.03;;;;;;;26.15;100.00;100751.97;4970990;28;20564;-69
2023/09/30 07:54:32;;;;;;;12.63;5.50;;;;;;;26.63;100.00;100809.81;4970891;28;20474;-70
2023/09/30 07:56:58;;;;;;;9.68;6.13;;;;;;;26.77;100.00;100850.47;4971232;28;20035;-68
2023/09/30 07:59:25;;;;;;;12.77;5.88;;;;;;;25.89;100.00;100810.53;4971334;28;20089;-69
2023/09/30 08:01:51;;;;;;;11.80;5.70;;;;;;;26.37;100.00;100852.81;4970786;28;20429;-70
2023/09/30 08:04:17;;;;;;;11.02;5.55;;;;;;;26.84;100.00;100842.00;4971812;28;20030;-71
2023/09/30 08:06:43;;;;;;;14.65;5.97;;;;;;;27.18;100.00;100843.50;4974703;28;20023;-69
2023/09/30 08:09:11;;;;;;;11.05;5.85;;;;;;;26.92;100.00;100825.75;4973633;28;20493;-69
2023/09/30 08:11:37;;;;;;;11.73;5.95;;;;;;;26.57;100.00;100852.88;4973137;28;20027;-69
2023/09/30 08:14:06;;;;;;;10.77;5.80;;;;;;;25.62;100.00;100810.06;4978394;28;20033;-68
2023/09/30 08:16:36;;;;;;;11.95;6.10;;;;;;;26.24;100.00;100839.09;4974404;28;20027;-66
2023/09/30 08:19:03;;;;;;;15.60;6.05;;;;;;;26.46;100.00;100807.75;4974696;28;20145;-71
2023/09/30 08:21:28;;;;;;;9.80;5.55;;;;;;;27.15;100.00;100825.50;4991010;28;20041;-68
2023/09/30 08:23:54;;;;;;;14.38;6.07;;;;;;;26.91;100.00;100855.41;4993876;28;20030;-69
2023/09/30 08:26:19;;;;;;;10.30;5.30;;;;;;;26.28;100.00;100880.47;4993879;28;20615;-68
2023/09/30 08:28:45;;;;;;;9.77;5.57;;;;;;;25.61;100.00;100817.06;4994104;28;20084;-68
2023/09/30 08:31:10;;;;;;;11.25;5.72;;;;;;;25.40;100.00;100825.69;4993572;28;20046;-68
2023/09/30 08:33:43;;;;;;;15.90;7.43;;;;;;;25.45;100.00;100832.19;4975603;28;20034;-69
2023/09/30 08:36:10;;;;;;;11.32;5.97;;;;;;;25.36;100.00;100879.75;4992523;28;20027;-66
2023/09/30 08:38:40;;;;;;;11.30;6.63;;;;;;;25.37;100.00;100844.13;4976093;28;20505;-67
2023/09/30 08:41:09;;;;;;;17.95;7.30;;;;;;;25.56;100.00;100880.88;4990468;28;20080;-65
2023/09/30 08:43:39;;;;;;;9.75;5.78;;;;;;;26.12;100.00;100894.81;4992212;28;20030;-66
2023/09/30 08:46:06;;;;;;;9.95;6.20;;;;;;;26.66;100.00;100806.97;4993152;28;20042;-66
2023/09/30 08:48:34;;;;;;;12.85;6.35;;;;;;;26.67;100.00;100867.78;4993273;28;20417;-68
2023/09/30 08:51:01;;;;;;;11.00;5.75;;;;;;;26.76;100.00;100814.88;4993184;28;20038;-68
2023/09/30 08:53:29;;;;;;;9.45;5.32;;;;;;;26.42;100.00;100877.56;4993520;28;20026;-68
2023/09/30 08:55:55;;;;;;;11.98;6.10;;;;;;;26.20;100.00;100885.47;4975710;28;20535;-66
2023/09/30 08:58:23;;;;;;;13.90;5.40;;;;;;;26.06;100.00;100832.69;4993413;28;20030;-68
2023/09/30 09:00:50;;;;;;;12.05;5.68;;;;;;;26.82;100.00;100862.19;4992923;28;20041;-69
2023/09/30 09:03:18;;;;;;;9.88;5.78;;;;;;;27.30;100.00;100850.31;4992944;28;20416;-68
2023/09/30 09:05:43;;;;;;;12.70;6.00;;;;;;;27.12;100.00;100849.22;4993156;28;20029;-70
2023/09/30 09:08:09;;;;;;;13.77;5.95;;;;;;;26.79;100.00;100805.03;4975446;28;20113;-72
2023/09/30 09:10:34;;;;;;;10.45;6.20;;;;;;;27.33;100.00;100834.44;4991819;28;20415;-71
2023/09/30 09:13:00;;;;;;;10.82;5.63;;;;;;;27.24;100.00;100842.16;4975278;28;20042;-67
2023/09/30 09:15:31;;;;;;;9.95;5.85;;;;;;;27.64;100.00;100832.66;4992007;28;20035;-70
2023/09/30 09:17:57;;;;;;;12.05;5.88;;;;;;;27.87;100.00;100851.63;4992460;28;20168;-70
2023/09/30 09:20:25;;;;;;;11.70;5.70;;;;;;;27.70;100.00;100823.44;5007259;28;20037;-67
2023/09/30 09:22:55;;;;;;;11.38;5.40;;;;;;;28.00;100.00;100802.53;5012235;28;20065;-68
2023/09/30 09:25:24;;;;;;;10.23;5.70;;;;;;;28.43;100.00;100823.13;5012184;28;20488;-68
2023/09/30 09:27:53;;;;;;;12.63;5.63;;;;;;;28.15;100.00;100812.47;5011574;28;20045;-67
2023/09/30 09:30:22;;;;;;;16.33;6.18;;;;;;;28.29;100.00;100840.88;5012202;28;20034;-69
2023/09/30 09:33:05;;;;;;;18.17;6.25;;;;;;;28.13;100.00;100784.78;5012104;28;20033;-68
2023/09/30 09:35:33;;;;;;;13.00;6.38;;;;;;;28.70;100.00;100847.69;5010852;28;20108;-68
2023/09/30 09:38:00;;;;;;;15.73;5.85;;;;;;;27.97;100.00;100831.59;5012377;28;20030;-72
2023/09/30 09:40:28;;;;;;;11.18;5.60;;;;;;;28.15;100.00;100838.66;5012257;28;20462;-68
2023/09/30 09:42:55;;;;;;;10.07;5.97;;;;;;;26.79;100.00;100825.06;5020809;28;20116;-69
2023/09/30 09:45:23;;;;;;;13.85;6.40;;;;;;;26.31;100.00;100824.59;5005572;28;20038;-71
2023/09/30 09:47:48;;;;;;;13.88;6.00;;;;;;;26.68;100.00;100879.91;5011781;28;20033;-69
2023/09/30 09:50:14;;;;;;;8.77;6.13;;;;;;;26.18;100.00;100844.78;4994144;28;20026;-69
2023/09/30 09:52:42;;;;;;;9.93;5.72;;;;;;;26.08;100.00;100849.06;5010143;28;20044;-69
2023/09/30 09:55:10;;;;;;;9.90;6.35;;;;;;;26.11;100.00;100870.50;4994002;28;20072;-70
2023/09/30 09:57:37;;;;;;;15.57;6.38;;;;;;;25.92;100.00;100898.94;4994103;28;20038;-69
2023/09/30 10:00:05;;;;;;;11.13;6.82;;;;;;;25.88;100.00;100896.69;5011888;28;20026;-71
2023/09/30 10:02:32;;;;;;;10.52;5.80;;;;;;;25.49;100.00;100804.16;5011366;28;20488;-70
2023/09/30 10:04:59;;;;;;;10.50;6.22;;;;;;;25.90;100.00;100892.19;4993730;28;20440;-69
2023/09/30 10:07:35;;;;;;;15.52;6.60;;;;;;;25.85;100.00;100832.56;4997650;28;20030;-70
2023/09/30 10:10:05;;;;;;;9.45;6.00;;;;;;;26.12;100.00;100889.59;4991977;28;20030;-70
2023/09/30 10:12:39;;;;;;;14.68;6.20;;;;;;;25.85;100.00;100858.63;4991576;28;20058;-69
2023/09/30 10:15:26;;;;;;;10.25;5.95;;;;;;;26.22;100.00;100880.13;4987731;28;20037;-68
2023/09/30 10:18:06;;;;;;;9.20;6.38;;;;;;;26.72;100.00;100857.84;4991378;28;20038;-69
2023/09/30 10:20:34;;;;;;;14.15;6.50;;;;;;;26.77;100.00;100788.66;4991822;28;20118;-69
2023/09/30 10:23:32;;;;;;;14.80;6.10;;;;;;;27.94;100.00;100829.19;4991525;28;20417;-68
2023/09/30 10:26:07;;;;;;;10.20;6.07;;;;;;;27.56;100.00;100842.09;4991559;28;20113;-67
2023/09/30 10:28:39;;;;;;;12.13;5.90;;;;;;;28.17;100.00;100815.78;4991307;28;20081;-68
2023/09/30 10:31:13;;;;;;;9.75;5.80;;;;;;;27.84;100.00;100773.41;4991200;28;20483;-68
2023/09/30 10:34:04;;;;;;;13.35;6.00;;;;;;;27.15;100.00;100842.94;4991320;28;20061;-68
2023/09/30 10:36:40;;;;;;;7.85;5.68;;;;;;;27.53;100.00;100769.19;4980593;28;20050;-67
2023/09/30 10:39:14;;;;;;;15.27;6.78;;;;;;;27.12;100.00;100780.50;4991028;28;20453;-68
2023/09/30 10:41:45;;;;;;;14.80;6.18;;;;;;;27.39;100.00;100831.28;4977061;28;20026;-67
2023/09/30 10:44:22;;;;;;;8.30;6.88;;;;;;;26.88;100.00;100848.63;4971923;28;20034;-67
2023/09/30 10:46:49;;;;;;;15.23;6.82;;;;;;;26.97;100.00;100839.22;4971979;28;20081;-69
2023/09/30 10:49:17;;;;;;;14.68;6.65;;;;;;;26.90;100.00;100833.69;4969911;28;20030;-68
2023/09/30 10:51:43;;;;;;;10.57;6.88;;;;;;;26.50;100.00;100814.38;4991196;28;20034;-69
2023/09/30 10:54:10;;;;;;;12.48;6.15;;;;;;;27.33;100.00;100821.38;4991004;28;20038;-68
2023/09/30 10:56:36;;;;;;;112.97;13.43;;;;;;;26.54;100.00;100794.91;4990006;28;20022;-67
2023/09/30 10:59:02;;;;;;;11.65;5.95;;;;;;;26.62;100.00;100821.22;4973266;28;20034;-68
2023/09/30 11:01:33;;;;;;;11.40;6.00;;;;;;;26.04;100.00;100782.44;4980737;28;20046;-69
2023/09/30 11:04:05;;;;;;;9.57;6.13;;;;;;;26.24;100.00;100818.22;4973879;28;20030;-69
2023/09/30 11:06:30;;;;;;;;;;;;;;;26.20;100.00;100841.13;4974161;28;20046;-69
2023/09/30 11:09:02;;;;;;;10.90;6.50;;;;;;;26.36;100.00;100780.75;4991122;28;20004;-69